Time;durP1;ratioP1;P1;durP2;ratioP2;P2;SDS_P1;SDS_P2;PMS_P1;PMS_P2;Temp;Humidity;BMP_temperature;BMP_pressure;BME280_temperature;BME280_humidity;BME280_pressure;Samples;Min_cycle;Max_cycle;Signal;HPM_P1;HPM_P2
2021/04/03 00:00:17;;;;;;;7.47;6.73;;;8.00;94.30;;;;;;5059776;28;20405;-61
2021/04/03 00:02:42;;;;;;;7.80;6.10;;;8.10;94.20;;;;;;5060607;28;20408;-61
2021/04/03 00:05:10;;;;;;;15.97;6.53;;;8.20;94.20;;;;;;5060747;28;20405;-61
2021/04/03 00:07:37;;;;;;;12.57;7.37;;;8.20;94.20;;;;;;5060373;28;20171;-61
2021/04/03 00:10:11;;;;;;;11.30;7.57;;;8.20;94.00;;;;;;5060102;28;20393;-60
2021/04/03 00:12:36;;;;;;;11.87;8.30;;;8.10;93.80;;;;;;5058014;28;20378;-59
2021/04/03 00:15:03;;;;;;;13.00;8.00;;;7.90;94.30;;;;;;5059593;28;20583;-60
2021/04/03 00:17:29;;;;;;;11.43;7.20;;;8.00;94.30;;;;;;5062556;28;20170;-61
2021/04/03 00:19:55;;;;;;;7.93;6.63;;;8.10;93.80;;;;;;5064102;28;20401;-61
2021/04/03 00:22:23;;;;;;;8.10;6.83;;;8.20;93.50;;;;;;5062462;28;20444;-58
2021/04/03 00:24:49;;;;;;;10.23;7.37;;;8.20;93.40;;;;;;5062164;28;20189;-60
2021/04/03 00:27:15;;;;;;;8.33;7.40;;;8.30;93.40;;;;;;5062635;28;20498;-60
2021/04/03 00:29:41;;;;;;;12.70;7.30;;;8.30;93.30;;;;;;5070326;28;20187;-61
2021/04/03 00:32:06;;;;;;;10.57;7.40;;;8.30;93.30;;;;;;5078157;28;20418;-61
2021/04/03 00:34:32;;;;;;;10.73;7.97;;;8.30;93.20;;;;;;5071149;28;20198;-61
2021/04/03 00:36:57;;;;;;;9.03;7.73;;;8.20;93.20;;;;;;5064252;28;20166;-60
2021/04/03 00:39:23;;;;;;;9.37;8.30;;;8.00;93.40;;;;;;5064504;28;20655;-61
2021/04/03 00:41:49;;;;;;;13.30;7.90;;;8.10;93.50;;;;;;5063888;28;20166;-60
2021/04/03 00:44:14;;;;;;;10.27;7.90;;;8.00;93.40;;;;;;5063821;28;20190;-61
2021/04/03 00:46:40;;;;;;;11.90;8.83;;;8.00;93.30;;;;;;5064763;28;20167;-59
2021/04/03 00:49:06;;;;;;;8.43;7.40;;;7.90;93.30;;;;;;5063886;28;20648;-61
2021/04/03 00:51:32;;;;;;;8.83;6.80;;;7.90;93.20;;;;;;5044846;28;20177;-60
2021/04/03 00:53:58;;;;;;;8.77;7.50;;;7.90;93.10;;;;;;5061911;28;20948;-59
2021/04/03 00:56:24;;;;;;;8.60;7.37;;;8.10;93.10;;;;;;5064958;28;20445;-60
2021/04/03 00:58:50;;;;;;;10.63;7.27;;;8.20;92.60;;;;;;5064851;28;20397;-61
2021/04/03 01:01:16;;;;;;;8.57;7.23;;;8.00;92.60;;;;;;5063606;28;20494;-59
2021/04/03 01:03:42;;;;;;;8.63;7.23;;;8.10;92.70;;;;;;5041127;28;20713;-60
2021/04/03 01:06:08;;;;;;;9.40;7.87;;;8.00;92.50;;;;;;5060795;28;20428;-60
2021/04/03 01:08:34;;;;;;;10.50;8.33;;;8.00;92.50;;;;;;5059721;28;20863;-60
2021/04/03 01:10:59;;;;;;;10.80;7.53;;;7.90;92.30;;;;;;5063055;28;20193;-61
2021/04/03 01:13:33;;;;;;;7.67;6.87;;;7.80;92.60;;;;;;5046190;28;20190;-61
2021/04/03 01:16:38;;;;;;;8.57;6.87;;;7.90;92.30;;;;;;5063318;28;20582;-60
2021/04/03 01:19:41;;;;;;;7.60;6.80;;;7.80;92.30;;;;;;5063719;28;20390;-61
2021/04/03 01:22:22;;;;;;;10.87;6.60;;;7.80;92.40;;;;;;5064077;28;20398;-61
2021/04/03 01:25:12;;;;;;;13.20;7.27;;;7.80;92.30;;;;;;5063746;28;20428;-61
2021/04/03 01:28:06;;;;;;;9.50;7.07;;;8.10;92.00;;;;;;5063107;28;20392;-61
2021/04/03 01:30:35;;;;;;;10.47;7.30;;;8.20;91.80;;;;;;5022523;28;20472;-61
2021/04/03 01:33:12;;;;;;;9.90;7.17;;;8.30;91.50;;;;;;5063510;28;20437;-60
2021/04/03 01:35:49;;;;;;;8.30;7.13;;;8.20;91.60;;;;;;5062441;28;20449;-61
2021/04/03 01:38:32;;;;;;;7.63;6.57;;;8.00;91.70;;;;;;5063269;28;20753;-60
2021/04/03 01:40:59;;;;;;;9.53;6.77;;;8.20;91.70;;;;;;5063587;28;20394;-61
2021/04/03 01:43:28;;;;;;;8.60;6.50;;;8.10;91.40;;;;;;5062615;28;20429;-61
2021/04/03 01:45:55;;;;;;;12.83;7.00;;;8.20;91.50;;;;;;5062158;28;20420;-60
2021/04/03 01:48:22;;;;;;;6.63;5.87;;;8.30;91.40;;;;;;5061956;28;20410;-60
2021/04/03 01:50:49;;;;;;;8.90;6.00;;;8.40;91.60;;;;;;5060983;28;20419;-61
2021/04/03 01:53:18;;;;;;;6.97;6.27;;;8.60;91.00;;;;;;5062781;28;20421;-61
2021/04/03 01:55:44;;;;;;;7.70;5.90;;;8.60;90.80;;;;;;5063135;28;20451;-60
2021/04/03 01:58:10;;;;;;;9.50;6.10;;;8.70;90.70;;;;;;5062612;28;20414;-61
2021/04/03 02:00:38;;;;;;;9.50;6.00;;;8.50;91.00;;;;;;5063662;28;20412;-61
2021/04/03 02:03:05;;;;;;;10.07;6.53;;;8.30;90.70;;;;;;5062211;28;20591;-60
2021/04/03 02:05:31;;;;;;;9.23;6.30;;;8.30;91.00;;;;;;5062877;28;20471;-61
2021/04/03 02:07:59;;;;;;;12.27;6.80;;;8.20;91.00;;;;;;5062103;28;20436;-60
2021/04/03 02:10:29;;;;;;;6.90;6.20;;;8.20;90.80;;;;;;5061905;28;20401;-61
2021/04/03 02:12:55;;;;;;;7.43;6.73;;;8.10;90.90;;;;;;5062654;28;20425;-61
2021/04/03 02:15:25;;;;;;;9.57;7.20;;;8.10;91.20;;;;;;5062939;28;20471;-61
2021/04/03 02:17:55;;;;;;;8.43;6.10;;;8.00;91.10;;;;;;5062871;28;20404;-61
2021/04/03 02:20:21;;;;;;;9.57;7.17;;;7.90;91.60;;;;;;5061020;28;20770;-60
2021/04/03 02:22:47;;;;;;;9.40;6.50;;;7.90;91.80;;;;;;5043561;28;20461;-61
2021/04/03 02:25:16;;;;;;;8.60;7.70;;;7.90;92.10;;;;;;5060472;28;20189;-59
2021/04/03 02:27:43;;;;;;;12.53;6.77;;;8.00;92.20;;;;;;5043016;28;20778;-60
2021/04/03 02:30:17;;;;;;;8.93;7.40;;;7.90;92.40;;;;;;5059985;28;20405;-61
2021/04/03 02:32:46;;;;;;;8.70;6.63;;;8.00;92.30;;;;;;5060369;28;20459;-59
2021/04/03 02:35:13;;;;;;;8.40;7.47;;;8.00;92.40;;;;;;5059800;28;20444;-61
2021/04/03 02:37:39;;;;;;;8.37;6.60;;;7.90;92.50;;;;;;5059760;28;20424;-59
2021/04/03 02:40:08;;;;;;;9.50;7.07;;;7.90;92.70;;;;;;5061596;28;20800;-61
2021/04/03 02:42:40;;;;;;;9.60;6.90;;;8.10;92.40;;;;;;5061905;28;20405;-61
2021/04/03 02:45:08;;;;;;;12.07;7.03;;;8.20;92.40;;;;;;5061724;28;20416;-61
2021/04/03 02:47:44;;;;;;;9.63;6.53;;;8.20;92.00;;;;;;5061618;28;20420;-61
2021/04/03 02:50:19;;;;;;;8.93;6.30;;;8.10;92.30;;;;;;5061477;28;20420;-61
2021/04/03 02:52:53;;;;;;;9.80;6.30;;;8.00;92.30;;;;;;5065265;28;20416;-61
2021/04/03 02:55:23;;;;;;;8.47;6.17;;;7.90;92.50;;;;;;5061035;28;20443;-61
2021/04/03 02:57:50;;;;;;;8.20;6.03;;;8.00;91.90;;;;;;5061592;28;20769;-61
2021/04/03 03:00:19;;;;;;;10.90;5.40;;;8.10;91.90;;;;;;5061737;28;20412;-61
2021/04/03 03:02:45;;;;;;;5.97;5.37;;;8.20;91.80;;;;;;5061341;28;20435;-61
2021/04/03 03:05:12;;;;;;;9.07;6.00;;;8.20;91.50;;;;;;5078666;22;20572;-64
2021/04/03 03:07:42;;;;;;;7.60;5.90;;;8.00;91.30;;;;;;5054096;28;20394;-63
2021/04/03 03:10:08;;;;;;;7.03;4.90;;;8.00;91.20;;;;;;5053799;28;20391;-63
2021/04/03 03:12:37;;;;;;;7.63;5.60;;;8.10;91.20;;;;;;5053702;28;20395;-64
2021/04/03 03:15:04;;;;;;;6.00;5.20;;;8.40;91.20;;;;;;5053508;28;20439;-65
2021/04/03 03:17:30;;;;;;;5.77;4.90;;;8.40;91.10;;;;;;5054160;28;20424;-64
2021/04/03 03:19:58;;;;;;;5.93;4.93;;;8.20;90.60;;;;;;5035448;28;20412;-64
2021/04/03 03:22:24;;;;;;;6.07;4.93;;;8.00;90.80;;;;;;5053544;28;20402;-64
2021/04/03 03:24:50;;;;;;;6.57;5.90;;;8.10;91.00;;;;;;5053622;28;20435;-63
2021/04/03 03:27:17;;;;;;;10.97;5.87;;;7.90;91.10;;;;;;5053762;28;20171;-64
2021/04/03 03:29:44;;;;;;;6.93;4.73;;;7.90;91.30;;;;;;5053443;28;20447;-64
2021/04/03 03:32:10;;;;;;;8.20;5.10;;;8.00;91.30;;;;;;5053432;28;20437;-64
2021/04/03 03:34:36;;;;;;;9.50;5.50;;;8.00;91.20;;;;;;5052731;28;20484;-64
2021/04/03 03:37:02;;;;;;;9.00;4.90;;;7.80;91.30;;;;;;5053597;28;20213;-64
2021/04/03 03:39:28;;;;;;;7.10;5.40;;;7.70;91.60;;;;;;5054149;28;20639;-63
2021/04/03 03:41:58;;;;;;;6.77;5.33;;;7.60;91.80;;;;;;5054311;28;20410;-64
2021/04/03 03:44:25;;;;;;;7.90;4.87;;;7.80;92.40;;;;;;5054278;28;20464;-64
2021/04/03 03:46:51;;;;;;;7.50;5.33;;;7.90;92.00;;;;;;5053616;28;20496;-63
2021/04/03 03:49:16;;;;;;;9.10;6.07;;;8.00;91.60;;;;;;5052896;28;20552;-63
2021/04/03 03:51:42;;;;;;;9.13;5.80;;;8.10;91.50;;;;;;5052758;28;20217;-64
2021/04/03 03:54:08;;;;;;;8.37;5.10;;;7.90;91.30;;;;;;5053306;28;20193;-65
2021/04/03 03:56:35;;;;;;;6.80;5.13;;;7.80;91.40;;;;;;5051165;28;20219;-65
2021/04/03 03:59:00;;;;;;;6.30;4.90;;;7.50;91.40;;;;;;5053015;28;20171;-65
2021/04/03 04:01:26;;;;;;;7.87;5.17;;;7.50;91.90;;;;;;5053297;28;20397;-64
2021/04/03 04:03:51;;;;;;;5.93;5.13;;;7.50;91.60;;;;;;5052206;28;20201;-65
2021/04/03 04:06:17;;;;;;;6.67;4.80;;;7.60;91.80;;;;;;5053258;28;20171;-64
2021/04/03 04:08:44;;;;;;;6.17;5.13;;;7.60;91.90;;;;;;5052968;28;20193;-64
2021/04/03 04:11:09;;;;;;;7.37;5.50;;;7.60;91.80;;;;;;5052936;28;20173;-64
2021/04/03 04:13:37;;;;;;;9.50;5.47;;;7.60;91.90;;;;;;5053161;28;20412;-64
2021/04/03 04:16:04;;;;;;;9.80;5.23;;;7.60;91.90;;;;;;5052994;28;20201;-64
2021/04/03 04:18:29;;;;;;;6.40;5.77;;;7.60;91.90;;;;;;5052891;28;20408;-65
2021/04/03 04:20:55;;;;;;;6.50;5.40;;;7.50;92.10;;;;;;5052552;28;20409;-64
2021/04/03 04:23:20;;;;;;;7.23;5.93;;;7.60;92.50;;;;;;5052098;28;20253;-65
2021/04/03 04:25:46;;;;;;;7.07;5.20;;;7.60;92.60;;;;;;5052576;28;20186;-64
2021/04/03 04:28:11;;;;;;;7.60;5.00;;;7.60;92.40;;;;;;5052765;28;20182;-64
2021/04/03 04:30:37;;;;;;;6.50;5.40;;;7.50;92.60;;;;;;5038721;28;20171;-64
2021/04/03 04:33:03;;;;;;;6.30;5.10;;;7.40;92.70;;;;;;5052723;28;20174;-64
2021/04/03 04:35:30;;;;;;;12.47;5.73;;;7.30;92.90;;;;;;5052362;28;20585;-64
2021/04/03 04:37:55;;;;;;;8.20;5.83;;;7.30;93.00;;;;;;5052646;28;20179;-64
2021/04/03 04:40:21;;;;;;;8.83;5.60;;;7.30;93.30;;;;;;5052642;28;20408;-64
2021/04/03 04:42:48;;;;;;;11.67;5.40;;;7.50;93.10;;;;;;5052550;28;20655;-65
2021/04/03 04:45:13;;;;;;;9.30;6.00;;;7.50;93.10;;;;;;5069517;28;20222;-64
2021/04/03 04:47:39;;;;;;;5.40;5.00;;;7.40;93.10;;;;;;5072556;28;20466;-64
2021/04/03 04:50:06;;;;;;;7.97;5.63;;;7.60;93.00;;;;;;5072116;28;20173;-64
2021/04/03 04:52:33;;;;;;;6.90;5.10;;;7.80;92.90;;;;;;5073255;28;20174;-64
2021/04/03 04:54:58;;;;;;;10.00;6.03;;;7.90;92.60;;;;;;5072416;28;20963;-64
2021/04/03 04:57:24;;;;;;;7.50;5.67;;;7.90;92.90;;;;;;5072473;28;20392;-64
2021/04/03 04:59:50;;;;;;;7.33;5.10;;;8.00;92.60;;;;;;5072603;28;20638;-64
2021/04/03 05:02:15;;;;;;;9.73;5.60;;;7.70;92.60;;;;;;5072453;28;20196;-64
2021/04/03 05:04:41;;;;;;;6.10;5.30;;;7.60;92.70;;;;;;5066079;28;20251;-64
2021/04/03 05:07:06;;;;;;;7.10;5.40;;;7.50;93.00;;;;;;5056346;28;20167;-64
2021/04/03 05:09:32;;;;;;;5.87;5.20;;;7.60;93.00;;;;;;5056570;28;20181;-63
2021/04/03 05:12:00;;;;;;;10.13;5.53;;;7.70;92.90;;;;;;5056618;28;20179;-63
2021/04/03 05:14:26;;;;;;;7.63;5.30;;;7.70;93.40;;;;;;5056142;28;20230;-64
2021/04/03 05:16:52;;;;;;;7.03;5.07;;;7.70;92.90;;;;;;5055952;28;20942;-64
2021/04/03 05:19:17;;;;;;;8.13;5.50;;;7.70;92.90;;;;;;5055362;28;20219;-65
2021/04/03 05:21:43;;;;;;;6.27;5.40;;;7.70;92.80;;;;;;5056140;28;20166;-64
2021/04/03 05:24:08;;;;;;;7.10;5.60;;;7.80;92.90;;;;;;5038203;28;20193;-64
2021/04/03 05:26:34;;;;;;;6.13;5.00;;;7.70;92.70;;;;;;5055886;28;20173;-63
2021/04/03 05:29:00;;;;;;;8.50;5.57;;;7.90;92.70;;;;;;5055872;28;20159;-64
2021/04/03 05:31:29;;;;;;;16.43;6.63;;;7.80;92.40;;;;;;5055793;28;20289;-64
2021/04/03 05:33:54;;;;;;;10.70;5.13;;;7.80;92.60;;;;;;5055425;28;20197;-63
2021/04/03 05:36:20;;;;;;;7.90;4.73;;;7.80;92.60;;;;;;5055169;28;20952;-63
2021/04/03 05:38:45;;;;;;;9.00;4.90;;;7.90;92.70;;;;;;5055804;28;20167;-63
2021/04/03 05:41:11;;;;;;;10.90;5.67;;;7.70;92.60;;;;;;5055389;28;20246;-63
2021/04/03 05:43:38;;;;;;;11.93;4.70;;;7.70;92.90;;;;;;5055353;28;20640;-64
2021/04/03 05:46:04;;;;;;;8.27;5.00;;;7.80;92.90;;;;;;5055602;28;20171;-64
2021/04/03 05:48:30;;;;;;;6.17;4.67;;;7.80;93.00;;;;;;5055290;28;20493;-63
2021/04/03 05:50:58;;;;;;;7.50;5.07;;;7.80;92.60;;;;;;5054916;28;20191;-63
2021/04/03 05:53:24;;;;;;;6.33;4.00;;;7.50;92.90;;;;;;5055060;28;20413;-63
2021/04/03 05:55:53;;;;;;;7.20;4.67;;;7.70;93.00;;;;;;5055329;28;20442;-64
2021/04/03 05:58:19;;;;;;;10.30;5.40;;;7.90;92.90;;;;;;5055408;28;20397;-64
2021/04/03 06:00:45;;;;;;;7.03;4.50;;;7.80;92.60;;;;;;5055012;28;20409;-63
2021/04/03 06:03:11;;;;;;;6.77;4.60;;;7.80;92.90;;;;;;5055124;28;20422;-63
2021/04/03 06:05:38;;;;;;;5.80;5.20;;;7.80;93.00;;;;;;5054339;28;20718;-61
2021/04/03 06:08:03;;;;;;;7.97;4.77;;;8.00;92.70;;;;;;5054870;28;20169;-61
2021/04/03 06:10:29;;;;;;;7.60;5.37;;;7.90;92.50;;;;;;5054792;28;20880;-61
2021/04/03 06:12:54;;;;;;;5.93;4.30;;;7.80;93.20;;;;;;5054937;28;20646;-61
2021/04/03 06:15:32;;;;;;;6.43;4.97;;;7.80;93.00;;;;;;5054681;28;20678;-62
2021/04/03 06:18:02;;;;;;;8.23;5.63;;;7.80;93.10;;;;;;5054994;28;20296;-62
2021/04/03 06:20:34;;;;;;;8.63;5.20;;;7.80;93.10;;;;;;5054215;28;20394;-62
2021/04/03 06:23:01;;;;;;;6.73;5.17;;;7.80;93.70;;;;;;5054587;28;20466;-62
2021/04/03 06:25:28;;;;;;;9.83;5.00;;;7.60;93.50;;;;;;5054566;28;20479;-62
2021/04/03 06:28:10;;;;;;;6.43;5.33;;;7.70;94.10;;;;;;5054899;28;20405;-62
2021/04/03 06:30:38;;;;;;;6.60;4.70;;;7.70;94.00;;;;;;5054839;28;20496;-63
2021/04/03 06:33:14;;;;;;;7.20;5.50;;;7.60;93.80;;;;;;5054716;28;20405;-62
2021/04/03 06:35:40;;;;;;;7.93;4.40;;;7.60;93.80;;;;;;5053624;28;20460;-62
2021/04/03 06:38:22;;;;;;;5.83;4.50;;;7.50;94.40;;;;;;5057225;28;20415;-62
2021/04/03 06:40:47;;;;;;;8.80;4.30;;;7.50;94.20;;;;;;5054336;28;20997;-62
2021/04/03 06:43:19;;;;;;;7.40;5.27;;;7.40;94.30;;;;;;5054487;28;20496;-62
2021/04/03 06:45:46;;;;;;;8.10;4.50;;;7.60;94.30;;;;;;5054361;28;20208;-62
2021/04/03 06:48:14;;;;;;;7.53;5.00;;;7.70;94.00;;;;;;5054266;28;20898;-62
2021/04/03 06:50:45;;;;;;;5.47;4.57;;;7.70;94.00;;;;;;5054070;28;20416;-62
2021/04/03 06:53:16;;;;;;;9.80;5.60;;;7.70;94.30;;;;;;5054559;28;20488;-62
2021/04/03 06:55:45;;;;;;;5.93;4.67;;;7.80;94.10;;;;;;5054288;28;20455;-62
2021/04/03 06:58:12;;;;;;;5.10;4.60;;;7.80;94.60;;;;;;5054197;28;20397;-62
2021/04/03 07:00:38;;;;;;;6.80;5.07;;;7.70;94.20;;;;;;5054111;28;20398;-62
2021/04/03 07:03:19;;;;;;;5.07;4.37;;;7.90;94.00;;;;;;5054037;28;20773;-62
2021/04/03 07:05:46;;;;;;;8.27;4.77;;;7.70;94.10;;;;;;5053438;28;20491;-62
2021/04/03 07:08:12;;;;;;;7.30;4.77;;;7.70;94.20;;;;;;5053999;28;20412;-62
2021/04/03 07:10:39;;;;;;;7.93;4.90;;;7.90;94.00;;;;;;5054039;28;20462;-62
2021/04/03 07:13:07;;;;;;;8.00;5.33;;;8.30;94.00;;;;;;5054490;28;20434;-62
2021/04/03 07:15:33;;;;;;;6.40;4.70;;;8.20;93.40;;;;;;5052568;28;20976;-64
2021/04/03 07:17:58;;;;;;;6.20;4.53;;;8.40;93.20;;;;;;5053286;28;20420;-62
2021/04/03 07:20:30;;;;;;;4.73;4.33;;;8.50;93.30;;;;;;5053181;28;20389;-62
2021/04/03 07:22:59;;;;;;;6.63;4.93;;;8.90;92.50;;;;;;5053611;28;20164;-62
2021/04/03 07:25:31;;;;;;;4.80;4.10;;;8.80;92.20;;;;;;5053142;28;20476;-61
2021/04/03 07:27:57;;;;;;;6.77;4.57;;;8.80;92.50;;;;;;5054148;28;20390;-61
2021/04/03 07:30:35;;;;;;;4.97;4.33;;;8.80;92.10;;;;;;5053465;28;20394;-62
2021/04/03 07:33:19;;;;;;;5.27;4.20;;;8.80;91.80;;;;;;5053585;28;20488;-62
2021/04/03 07:35:55;;;;;;;8.33;4.10;;;8.40;92.40;;;;;;5052598;28;20476;-62
2021/04/03 07:38:33;;;;;;;7.10;4.30;;;8.30;92.70;;;;;;5053534;28;20396;-64
2021/04/03 07:41:11;;;;;;;6.10;4.20;;;8.60;92.60;;;;;;5053602;28;20451;-62
2021/04/03 07:43:43;;;;;;;4.97;4.40;;;8.60;92.20;;;;;;5053450;28;20399;-62
2021/04/03 07:46:14;;;;;;;8.53;4.33;;;8.70;92.10;;;;;;5053627;28;20382;-62
2021/04/03 07:48:51;;;;;;;8.80;4.43;;;8.30;92.50;;;;;;5053156;28;20393;-62
2021/04/03 07:51:20;;;;;;;5.13;4.30;;;8.20;92.90;;;;;;5052928;28;20404;-61
2021/04/03 07:53:47;;;;;;;6.60;4.23;;;8.20;92.90;;;;;;5053616;28;20405;-64
2021/04/03 07:56:18;;;;;;;5.67;4.50;;;8.40;92.90;;;;;;5053344;28;20580;-62
2021/04/03 07:58:56;;;;;;;9.17;5.20;;;8.50;92.70;;;;;;5053405;28;20405;-63
2021/04/03 08:01:24;;;;;;;7.50;3.93;;;8.50;92.80;;;;;;5053149;28;20393;-63
2021/04/03 08:04:10;;;;;;;6.77;4.93;;;8.80;92.50;;;;;;5052820;28;20422;-64
2021/04/03 08:06:38;;;;;;;10.63;4.90;;;8.90;92.00;;;;;;5052545;28;20413;-63
2021/04/03 08:09:14;;;;;;;6.03;4.07;;;9.00;91.80;;;;;;5053130;28;20402;-63
2021/04/03 08:11:42;;;;;;;5.93;4.00;;;9.00;91.30;;;;;;5053114;28;20394;-63
2021/04/03 08:14:11;;;;;;;6.70;3.90;;;8.60;91.60;;;;;;5053193;28;20465;-63
2021/04/03 08:16:37;;;;;;;4.30;3.87;;;8.60;92.00;;;;;;5052960;28;20452;-63
2021/04/03 08:19:03;;;;;;;7.93;3.20;;;8.60;92.00;;;;;;5053595;28;20402;-63
2021/04/03 08:21:41;;;;;;;7.80;3.80;;;8.70;91.60;;;;;;5052416;28;20478;-62
2021/04/03 08:24:07;;;;;;;8.20;4.10;;;8.80;91.80;;;;;;5052748;28;20588;-63
2021/04/03 08:26:37;;;;;;;7.77;4.33;;;8.90;91.40;;;;;;5052839;28;20958;-63
2021/04/03 08:29:03;;;;;;;6.90;3.77;;;9.10;91.20;;;;;;5052815;28;20898;-63
2021/04/03 08:31:32;;;;;;;9.60;3.30;;;9.20;90.90;;;;;;5052796;28;20501;-62
2021/04/03 08:34:04;;;;;;;4.57;3.80;;;9.10;90.70;;;;;;5052481;28;20951;-63
2021/04/03 08:36:33;;;;;;;8.50;4.07;;;8.90;91.20;;;;;;5054926;28;20429;-63
2021/04/03 08:39:04;;;;;;;5.17;3.40;;;8.70;91.40;;;;;;5056690;28;20495;-63
2021/04/03 08:41:30;;;;;;;7.10;3.30;;;8.80;91.40;;;;;;5057056;28;20454;-63
2021/04/03 08:43:57;;;;;;;5.83;3.63;;;8.80;91.30;;;;;;5056593;28;20832;-63
2021/04/03 08:46:24;;;;;;;6.03;3.27;;;8.70;90.90;;;;;;5056537;28;20409;-63
2021/04/03 08:48:55;;;;;;;4.97;3.33;;;8.50;90.90;;;;;;5056807;28;20501;-62
2021/04/03 08:51:21;;;;;;;4.93;3.50;;;8.60;91.30;;;;;;5056029;28;20394;-63
2021/04/03 08:53:49;;;;;;;6.27;4.70;;;8.90;91.00;;;;;;5056372;28;20409;-63
2021/04/03 08:56:25;;;;;;;6.23;4.17;;;9.20;90.90;;;;;;5056830;28;20438;-63
2021/04/03 08:58:53;;;;;;;171.87;104.93;;;9.20;90.60;;;;;;5056568;28;20483;-63
2021/04/03 09:01:23;;;;;;;5.77;4.43;;;8.80;90.40;;;;;;5056464;28;20405;-63
2021/04/03 09:03:52;;;;;;;13.57;10.10;;;8.70;90.70;;;;;;5056148;28;20420;-63
2021/04/03 09:06:39;;;;;;;6.77;4.83;;;8.70;90.70;;;;;;5057377;28;20428;-63
2021/04/03 09:09:15;;;;;;;6.93;5.37;;;8.90;90.00;;;;;;5056010;28;20394;-63
2021/04/03 09:12:05;;;;;;;7.70;3.53;;;9.20;90.20;;;;;;5056381;28;20402;-64
2021/04/03 09:14:36;;;;;;;4.97;3.60;;;9.00;90.20;;;;;;5055904;28;20430;-63
2021/04/03 09:17:26;;;;;;;6.70;3.70;;;9.10;90.20;;;;;;5056530;28;20913;-63
2021/04/03 09:19:52;;;;;;;5.00;3.70;;;9.10;89.80;;;;;;5037625;28;20395;-63
2021/04/03 09:22:20;;;;;;;12.73;10.70;;;8.90;89.50;;;;;;5055838;28;20406;-63
2021/04/03 09:24:56;;;;;;;5.40;2.90;;;8.90;90.00;;;;;;5056014;28;20443;-63
2021/04/03 09:27:22;;;;;;;9.87;6.13;;;9.00;89.70;;;;;;5056333;28;20449;-62
2021/04/03 09:29:56;;;;;;;8.23;5.03;;;9.00;89.20;;;;;;5055943;28;20408;-63
2021/04/03 09:32:22;;;;;;;8.83;8.03;;;9.10;89.70;;;;;;5056150;28;20410;-63
2021/04/03 09:34:48;;;;;;;8.53;5.30;;;9.20;89.20;;;;;;5055120;28;20451;-64
2021/04/03 09:37:22;;;;;;;6.70;3.33;;;9.20;89.30;;;;;;5055824;28;20411;-63
2021/04/03 09:39:55;;;;;;;4.87;4.00;;;9.00;88.60;;;;;;5055591;28;20391;-63
2021/04/03 09:42:24;;;;;;;3.57;3.03;;;9.10;88.70;;;;;;5055827;28;20750;-63
2021/04/03 09:44:51;;;;;;;4.07;3.57;;;9.30;88.00;;;;;;5055296;28;20438;-63
2021/04/03 09:47:17;;;;;;;6.33;4.00;;;9.30;86.80;;;;;;5055588;28;20407;-62
2021/04/03 09:49:45;;;;;;;3.87;3.13;;;9.60;87.40;;;;;;5054541;28;20424;-64
2021/04/03 09:52:13;;;;;;;3.87;3.20;;;9.80;86.60;;;;;;5055402;28;20459;-63
2021/04/03 09:54:39;;;;;;;4.83;3.33;;;9.80;87.10;;;;;;5055595;28;20825;-63
2021/04/03 09:57:05;;;;;;;4.27;3.87;;;9.90;85.60;;;;;;5055233;28;20413;-63
2021/04/03 09:59:31;;;;;;;3.57;3.07;;;9.80;84.80;;;;;;5055592;28;20405;-63
2021/04/03 10:01:58;;;;;;;4.90;3.57;;;9.80;84.80;;;;;;5055369;28;20199;-63
2021/04/03 10:04:24;;;;;;;5.00;3.20;;;10.00;83.30;;;;;;5037273;28;20218;-63
2021/04/03 10:06:51;;;;;;;5.17;3.33;;;10.20;83.50;;;;;;5054794;28;20425;-62
2021/04/03 10:09:17;;;;;;;5.57;3.83;;;10.40;83.00;;;;;;5053973;28;20514;-62
2021/04/03 10:11:42;;;;;;;4.37;2.87;;;10.30;82.40;;;;;;5046149;28;20533;-63
2021/04/03 10:14:08;;;;;;;6.73;4.20;;;10.10;82.70;;;;;;5054700;28;20424;-63
2021/04/03 10:16:34;;;;;;;5.87;3.57;;;10.00;82.60;;;;;;5055047;28;20545;-63
2021/04/03 10:18:59;;;;;;;3.40;2.83;;;10.20;84.00;;;;;;5055155;28;20224;-63
2021/04/03 10:21:25;;;;;;;5.13;3.83;;;10.40;81.90;;;;;;5054426;28;20224;-63
2021/04/03 10:23:52;;;;;;;3.40;3.10;;;10.50;81.50;;;;;;5054909;28;20191;-63
2021/04/03 10:26:18;;;;;;;8.93;3.33;;;10.40;80.50;;;;;;5054978;28;20407;-63
2021/04/03 10:28:44;;;;;;;6.70;3.10;;;10.30;80.00;;;;;;5057152;28;20409;-63
2021/04/03 10:31:11;;;;;;;4.67;3.33;;;10.50;80.00;;;;;;5054372;28;20504;-63
2021/04/03 10:33:37;;;;;;;8.90;4.00;;;10.80;79.30;;;;;;5054716;28;20171;-63
2021/04/03 10:36:06;;;;;;;4.20;3.50;;;11.30;79.10;;;;;;5033924;28;20989;-65
2021/04/03 10:38:33;;;;;;;6.70;3.40;;;11.80;78.70;;;;;;5034449;28;20407;-62
2021/04/03 10:40:59;;;;;;;5.63;3.17;;;11.90;78.00;;;;;;5034255;28;20410;-62
2021/04/03 10:43:25;;;;;;;4.10;2.83;;;11.50;76.60;;;;;;5034590;28;20434;-62
2021/04/03 10:45:51;;;;;;;5.50;3.27;;;11.20;77.30;;;;;;5034265;28;20460;-62
2021/04/03 10:48:17;;;;;;;7.27;3.30;;;11.50;77.20;;;;;;5034437;28;20403;-61
2021/04/03 10:50:43;;;;;;;7.47;3.73;;;11.90;75.90;;;;;;5033944;28;20176;-62
2021/04/03 10:53:09;;;;;;;9.00;3.27;;;11.60;76.40;;;;;;5034162;28;20171;-62
2021/04/03 10:55:36;;;;;;;3.80;3.30;;;12.10;75.40;;;;;;5034287;28;20200;-63
2021/04/03 10:58:01;;;;;;;5.03;2.90;;;12.30;74.10;;;;;;5034302;28;20550;-63
2021/04/03 11:00:27;;;;;;;4.30;2.73;;;13.50;72.20;;;;;;5033108;28;20569;-63
2021/04/03 11:02:53;;;;;;;4.50;3.00;;;16.00;68.10;;;;;;5033692;28;20167;-61
2021/04/03 11:05:19;;;;;;;3.60;2.77;;;14.90;65.40;;;;;;5047284;28;20797;-61
2021/04/03 11:07:44;;;;;;;6.93;3.33;;;13.70;66.20;;;;;;5054079;28;20662;-61
2021/04/03 11:10:12;;;;;;;4.03;3.27;;;13.90;66.50;;;;;;5053873;28;20173;-61
2021/04/03 11:12:37;;;;;;;2.90;2.57;;;15.20;64.60;;;;;;5053934;28;20652;-61
2021/04/03 11:15:04;;;;;;;4.37;2.80;;;17.40;61.70;;;;;;5053565;28;20443;-62
2021/04/03 11:17:29;;;;;;;5.40;3.27;;;18.30;56.30;;;;;;5053185;28;20180;-62
2021/04/03 11:19:55;;;;;;;3.60;2.77;;;17.80;57.00;;;;;;5052350;28;20417;-62
2021/04/03 11:22:21;;;;;;;6.07;3.60;;;18.50;54.80;;;;;;5053069;28;20611;-62
2021/04/03 11:24:46;;;;;;;5.50;3.07;;;17.40;55.60;;;;;;5053403;28;20237;-62
2021/04/03 11:27:12;;;;;;;6.03;3.87;;;16.10;57.20;;;;;;5053413;28;20219;-62
2021/04/03 11:29:38;;;;;;;4.03;2.93;;;15.30;58.40;;;;;;5053407;28;20161;-62
2021/04/03 11:32:04;;;;;;;3.83;2.60;;;15.60;59.20;;;;;;5053319;28;20651;-62
2021/04/03 11:34:29;;;;;;;4.13;2.87;;;17.50;55.90;;;;;;5053466;28;20551;-63
2021/04/03 11:36:55;;;;;;;3.90;2.60;;;17.50;55.10;;;;;;5052788;28;20495;-62
2021/04/03 11:39:20;;;;;;;3.50;3.20;;;15.70;57.80;;;;;;5053227;28;20177;-62
2021/04/03 11:41:46;;;;;;;4.17;2.57;;;15.40;56.70;;;;;;5053388;28;20167;-62
2021/04/03 11:44:11;;;;;;;4.40;2.97;;;14.90;57.50;;;;;;5053594;28;20186;-61
2021/04/03 11:46:37;;;;;;;3.23;2.80;;;14.00;59.40;;;;;;5053496;28;20178;-61
2021/04/03 11:49:03;;;;;;;6.00;2.97;;;13.90;60.70;;;;;;5053301;28;20311;-61
2021/04/03 11:51:30;;;;;;;6.37;3.17;;;13.50;59.80;;;;;;5052772;28;20171;-61
2021/04/03 11:53:56;;;;;;;4.00;3.40;;;13.40;61.90;;;;;;5052724;28;20190;-61
2021/04/03 11:56:22;;;;;;;3.90;3.40;;;13.40;61.20;;;;;;5052706;28;20469;-62
2021/04/03 11:58:48;;;;;;;4.03;2.83;;;13.80;60.90;;;;;;5053304;28;20551;-61
2021/04/03 12:01:14;;;;;;;3.97;2.90;;;14.20;60.90;;;;;;5054015;28;20178;-61
2021/04/03 12:03:40;;;;;;;6.00;3.33;;;15.60;58.90;;;;;;5052971;28;20486;-63
2021/04/03 12:06:05;;;;;;;9.23;2.73;;;16.20;57.10;;;;;;5052606;28;20195;-63
2021/04/03 12:08:31;;;;;;;3.03;2.73;;;16.30;56.00;;;;;;5052988;28;20177;-61
2021/04/03 12:10:56;;;;;;;3.03;2.60;;;15.30;58.00;;;;;;5052913;28;20216;-62
2021/04/03 12:13:23;;;;;;;3.00;2.70;;;15.90;56.30;;;;;;5056359;28;20164;-62
2021/04/03 12:15:49;;;;;;;3.07;2.57;;;18.00;55.10;;;;;;5057069;28;20202;-62
2021/04/03 12:18:14;;;;;;;3.00;2.70;;;18.00;52.40;;;;;;5056953;28;20413;-62
2021/04/03 12:20:40;;;;;;;3.67;2.40;;;18.20;51.70;;;;;;5056488;28;20166;-63
2021/04/03 12:23:05;;;;;;;3.70;2.77;;;19.60;48.70;;;;;;5059359;28;20166;-62
2021/04/03 12:25:31;;;;;;;2.90;2.23;;;18.50;48.40;;;;;;5056817;28;20186;-62
2021/04/03 12:27:57;;;;;;;2.97;2.60;;;19.20;48.90;;;;;;5056800;28;20163;-62
2021/04/03 12:30:22;;;;;;;7.53;2.53;;;18.60;47.70;;;;;;5056867;28;20167;-62
2021/04/03 12:32:48;;;;;;;8.57;3.97;;;16.50;51.00;;;;;;5057076;28;20254;-62
2021/04/03 12:35:14;;;;;;;7.27;3.53;;;14.70;54.60;;;;;;5056360;28;20248;-62
2021/04/03 12:37:40;;;;;;;3.40;2.87;;;14.30;56.80;;;;;;5056918;28;20178;-61
2021/04/03 12:40:06;;;;;;;3.93;2.90;;;14.10;57.70;;;;;;5056843;28;20406;-61
2021/04/03 12:42:33;;;;;;;5.03;2.90;;;13.60;57.80;;;;;;5056910;28;20212;-61
2021/04/03 12:44:59;;;;;;;4.17;2.80;;;13.20;58.40;;;;;;5056791;28;20427;-61
2021/04/03 12:47:25;;;;;;;4.03;2.90;;;13.00;58.90;;;;;;5056636;28;20401;-61
2021/04/03 12:49:51;;;;;;;3.77;2.17;;;12.80;58.60;;;;;;5056866;28;20413;-61
2021/04/03 12:52:16;;;;;;;4.50;2.60;;;12.80;59.40;;;;;;5056274;28;20179;-62
2021/04/03 12:54:42;;;;;;;6.30;2.50;;;14.10;56.90;;;;;;5056325;28;20184;-61
2021/04/03 12:57:09;;;;;;;4.00;2.20;;;15.60;54.40;;;;;;5056762;28;20213;-62